Time;durP1;ratioP1;P1;durP2;ratioP2;P2;SDS_P1;SDS_P2;PMS_P1;PMS_P2;Temp;Humidity;BMP_temperature;BMP_pressure;BME280_temperature;BME280_humidity;BME280_pressure;Samples;Min_cycle;Max_cycle;Signal;HPM_P1;HPM_P2
2022/10/09 00:00:48;;;;;;;23.47;6.73;;;;;;;5.02;100.00;97210.97;6158161;23;20947;-79
2022/10/09 00:03:16;;;;;;;30.53;7.90;;;;;;;4.94;100.00;97206.25;6131287;23;20897;-79
2022/10/09 00:05:44;;;;;;;16.87;6.30;;;;;;;4.87;100.00;97187.44;6106532;23;20438;-79
2022/10/09 00:08:11;;;;;;;57.77;9.30;;;;;;;4.83;100.00;97181.97;6106863;23;20415;-79
2022/10/09 00:10:42;;;;;;;22.00;6.43;;;;;;;4.71;100.00;97203.22;6105779;23;20404;-80
2022/10/09 00:13:10;;;;;;;11.93;5.80;;;;;;;4.92;100.00;97196.06;6130311;23;20404;-80
2022/10/09 00:15:42;;;;;;;13.77;7.27;;;;;;;4.61;100.00;97147.44;6131624;23;20951;-80
2022/10/09 00:18:13;;;;;;;24.00;6.57;;;;;;;4.83;100.00;97191.66;6106194;23;20490;-80
2022/10/09 00:20:43;;;;;;;28.50;7.80;;;;;;;4.96;100.00;97204.19;6130679;23;20406;-80
2022/10/09 00:23:13;;;;;;;13.70;6.07;;;;;;;4.38;100.00;97099.06;6130317;23;20754;-80
2022/10/09 00:25:50;;;;;;;14.57;6.80;;;;;;;5.11;100.00;97200.72;6106704;23;20491;-79
2022/10/09 00:28:17;;;;;;;29.10;9.47;;;;;;;5.10;100.00;97191.28;6130289;23;20420;-79
2022/10/09 00:30:44;;;;;;;23.23;8.63;;;;;;;4.93;100.00;97170.63;6106461;23;20782;-80
2022/10/09 00:33:10;;;;;;;36.80;8.73;;;;;;;4.77;100.00;97153.41;6130799;23;20404;-80
2022/10/09 00:35:38;;;;;;;9.53;6.27;;;;;;;5.14;100.00;97202.78;6130644;23;20388;-79
2022/10/09 00:38:06;;;;;;;13.70;7.20;;;;;;;5.22;100.00;97203.03;6130634;23;20519;-80
2022/10/09 00:40:33;;;;;;;20.93;7.80;;;;;;;4.96;100.00;97162.25;6130354;23;20902;-80
2022/10/09 00:43:00;;;;;;;29.37;6.20;;;;;;;5.14;100.00;97187.84;6105926;23;20436;-80
2022/10/09 00:45:28;;;;;;;27.87;6.33;;;;;;;5.10;100.00;97186.81;6106056;23;20490;-80
2022/10/09 00:48:03;;;;;;;20.67;7.23;;;;;;;4.96;100.00;97191.09;6130158;23;20404;-80
2022/10/09 00:50:40;;;;;;;22.83;6.00;;;;;;;5.04;100.00;97201.00;6130084;23;20396;-80
2022/10/09 00:53:10;;;;;;;15.53;5.97;;;;;;;4.20;100.00;97089.97;6106044;23;20398;-80
2022/10/09 00:55:38;;;;;;;41.10;7.50;;;;;;;4.58;100.00;97182.03;6131140;23;20368;-80
2022/10/09 00:58:05;;;;;;;29.67;6.53;;;;;;;4.27;100.00;97152.50;6130031;23;20424;-80
2022/10/09 01:00:32;;;;;;;15.10;5.90;;;;;;;4.21;100.00;97156.97;6130572;23;20402;-80
2022/10/09 01:02:58;;;;;;;27.50;7.47;;;;;;;4.09;100.00;97154.63;6106331;23;20432;-80
2022/10/09 01:06:01;;;;;;;16.90;6.87;;;;;;;3.96;100.00;97139.47;6156162;23;20399;-80
2022/10/09 01:08:35;;;;;;;40.23;7.87;;;;;;;4.12;100.00;97137.59;6156032;23;21012;-80
2022/10/09 01:11:06;;;;;;;15.43;6.40;;;;;;;3.97;100.00;97117.50;6156145;23;20695;-79
2022/10/09 01:13:37;;;;;;;24.73;6.70;;;;;;;4.23;100.00;97181.03;6130179;23;20488;-80
2022/10/09 01:16:27;;;;;;;39.83;7.23;;;;;;;3.99;100.00;97178.19;6106092;23;20442;-80
2022/10/09 01:19:26;;;;;;;25.13;7.00;;;;;;;4.12;100.00;97169.78;6156164;23;20400;-80
2022/10/09 01:22:01;;;;;;;10.37;6.50;;;;;;;4.20;100.00;97173.72;6130367;23;20431;-80
2022/10/09 01:25:02;;;;;;;23.43;6.47;;;;;;;4.17;100.00;97168.25;6130625;23;20506;-80
2022/10/09 01:27:31;;;;;;;20.93;6.03;;;;;;;3.75;100.00;97130.84;6126411;23;20740;-80
2022/10/09 01:30:05;;;;;;;16.17;6.13;;;;;;;4.18;100.00;97154.88;6131251;23;20814;-80
2022/10/09 01:32:37;;;;;;;21.27;5.40;;;;;;;4.02;100.00;97167.22;6108011;23;20395;-80
2022/10/09 01:35:06;;;;;;;29.93;7.20;;;;;;;3.86;100.00;97160.38;6108513;23;20396;-80
2022/10/09 01:37:35;;;;;;;17.00;6.27;;;;;;;3.34;100.00;97093.47;6158888;23;20419;-80
2022/10/09 01:40:03;;;;;;;14.23;4.53;;;;;;;3.59;100.00;97150.19;6132501;23;20423;-80
2022/10/09 01:42:31;;;;;;;18.40;6.00;;;;;;;3.48;100.00;97159.09;6132428;23;20427;-80
2022/10/09 01:44:58;;;;;;;12.43;5.80;;;;;;;3.50;100.00;97185.75;6132030;23;20885;-80
2022/10/09 01:47:25;;;;;;;13.10;4.90;;;;;;;3.17;100.00;97098.13;6132489;23;20407;-80
2022/10/09 01:50:03;;;;;;;25.37;5.20;;;;;;;3.73;100.00;97174.78;6158720;23;20424;-80
2022/10/09 01:52:53;;;;;;;12.60;4.23;;;;;;;3.54;100.00;97153.59;6108131;23;20419;-80
2022/10/09 01:55:43;;;;;;;14.50;4.20;;;;;;;3.60;100.00;97183.13;6159027;23;20427;-80
2022/10/09 01:58:37;;;;;;;8.70;3.77;;;;;;;3.32;100.00;97173.94;6158859;23;20435;-80
2022/10/09 02:01:15;;;;;;;5.23;4.03;;;;;;;2.93;100.00;97096.00;6132825;23;20407;-80
2022/10/09 02:03:47;;;;;;;6.17;3.70;;;;;;;3.25;100.00;97135.00;6108433;23;20388;-80
2022/10/09 02:06:15;;;;;;;4.57;3.40;;;;;;;3.31;100.00;97141.00;6108162;23;20403;-80
2022/10/09 02:08:44;;;;;;;6.33;3.60;;;;;;;3.12;100.00;97140.72;6132373;23;20400;-80
2022/10/09 02:11:14;;;;;;;2.97;2.77;;;;;;;2.82;100.00;97077.97;6158449;23;20471;-80
2022/10/09 02:13:42;;;;;;;9.60;4.13;;;;;;;3.42;100.00;97142.59;6132619;23;20964;-81
2022/10/09 02:16:26;;;;;;;8.90;4.53;;;;;;;3.73;100.00;97172.16;6132052;23;20439;-80
2022/10/09 02:19:17;;;;;;;7.10;3.33;;;;;;;3.33;100.00;97138.91;6158114;23;20467;-80
2022/10/09 02:21:51;;;;;;;16.40;4.73;;;;;;;3.07;100.00;97098.09;6108091;23;20441;-80
2022/10/09 02:24:21;;;;;;;16.03;3.80;;;;;;;3.50;100.00;97168.22;6132075;23;20427;-80
2022/10/09 02:26:49;;;;;;;5.77;3.97;;;;;;;3.25;100.00;97098.41;6108682;23;20410;-80
2022/10/09 02:29:16;;;;;;;34.43;4.40;;;;;;;3.39;100.00;97113.59;6108108;23;20510;-80
2022/10/09 02:31:43;;;;;;;7.03;3.60;;;;;;;3.56;100.00;97132.41;6105829;23;20735;-80
2022/10/09 02:34:14;;;;;;;5.80;3.63;;;;;;;3.85;100.00;97169.28;6129695;23;20475;-80
2022/10/09 02:36:41;;;;;;;14.00;4.00;;;;;;;3.70;100.00;97164.06;6155009;23;20368;-80
2022/10/09 02:39:08;;;;;;;11.77;3.23;;;;;;;3.81;100.00;97169.03;6104823;23;20507;-80
2022/10/09 02:41:35;;;;;;;13.20;4.43;;;;;;;3.81;100.00;97170.88;6104436;23;20404;-80
2022/10/09 02:44:03;;;;;;;8.90;3.10;;;;;;;3.90;100.00;97173.75;6129354;23;20384;-80
2022/10/09 02:46:30;;;;;;;9.93;4.13;;;;;;;3.86;100.00;97171.63;6104918;23;20414;-80
2022/10/09 02:48:57;;;;;;;7.23;3.93;;;;;;;3.80;100.00;97177.94;6128914;23;20424;-80
2022/10/09 02:51:24;;;;;;;6.10;3.83;;;;;;;3.86;100.00;97178.69;6129326;23;20380;-80
2022/10/09 02:53:52;;;;;;;6.83;3.70;;;;;;;3.48;100.00;97166.94;6105094;23;20422;-80
2022/10/09 02:56:21;;;;;;;17.23;6.10;;;;;;;3.35;100.00;97180.50;6129097;23;20523;-80
2022/10/09 02:58:48;;;;;;;8.40;4.93;;;;;;;3.28;100.00;97149.38;6129539;23;20926;-80
2022/10/09 03:01:15;;;;;;;18.23;4.90;;;;;;;3.34;100.00;97142.31;6155527;23;20412;-80
2022/10/09 03:03:42;;;;;;;15.37;3.13;;;;;;;3.04;100.00;97120.31;6129012;23;20522;-80
2022/10/09 03:06:11;;;;;;;4.83;2.97;;;;;;;2.71;100.00;97090.19;6104553;23;20400;-80
2022/10/09 03:08:40;;;;;;;8.70;2.90;;;;;;;2.66;100.00;97104.00;6104465;23;20451;-80
2022/10/09 03:11:09;;;;;;;15.53;3.73;;;;;;;3.34;100.00;97174.47;6129514;23;20388;-80
2022/10/09 03:13:35;;;;;;;3.70;3.20;;;;;;;2.90;100.00;97114.78;6129129;23;20398;-80
2022/10/09 03:16:07;;;;;;;23.83;4.53;;;;;;;3.00;100.00;97129.72;6106057;23;20511;-80
2022/10/09 03:18:35;;;;;;;6.77;3.20;;;;;;;2.95;100.00;97163.66;6106281;23;20461;-80
2022/10/09 03:21:07;;;;;;;12.50;3.37;;;;;;;2.77;100.00;97145.81;6156344;23;20889;-80
2022/10/09 03:23:34;;;;;;;8.47;3.30;;;;;;;2.82;100.00;97149.25;6129916;23;20518;-80
2022/10/09 03:26:05;;;;;;;16.57;3.80;;;;;;;2.83;100.00;97168.31;6131556;23;20388;-80
2022/10/09 03:28:37;;;;;;;28.07;6.90;;;;;;;2.62;100.00;97162.22;6131371;23;20781;-80
2022/10/09 03:31:05;;;;;;;14.33;7.00;;;;;;;2.78;100.00;97173.50;6131947;23;20738;-80
2022/10/09 03:33:33;;;;;;;13.80;5.73;;;;;;;2.42;100.00;97107.31;6134443;23;20471;-80
2022/10/09 03:36:00;;;;;;;17.07;4.97;;;;;;;2.49;100.00;97147.00;6133422;23;20387;-80
2022/10/09 03:38:27;;;;;;;11.83;4.43;;;;;;;1.93;100.00;97076.28;6132764;23;20494;-80
2022/10/09 03:40:56;;;;;;;12.70;3.93;;;;;;;1.93;100.00;97110.16;6134075;23;20407;-80
2022/10/09 03:43:23;;;;;;;11.83;4.73;;;;;;;1.77;100.00;97064.97;6109341;23;20537;-80
2022/10/09 03:45:49;;;;;;;12.93;5.13;;;;;;;1.87;100.00;97061.63;6109519;23;20507;-80
2022/10/09 03:48:16;;;;;;;8.50;4.00;;;;;;;2.46;100.00;97171.78;6110472;23;20430;-80
2022/10/09 03:50:43;;;;;;;4.23;3.63;;;;;;;2.17;100.00;97136.66;6133234;23;20410;-80
2022/10/09 03:53:11;;;;;;;5.77;3.50;;;;;;;1.99;100.00;97116.97;6142178;23;20467;-80
2022/10/09 03:55:39;;;;;;;5.00;3.70;;;;;;;2.34;100.00;97169.38;6122753;23;20428;-80
2022/10/09 03:58:06;;;;;;;6.17;4.80;;;;;;;1.63;100.00;97080.25;6115419;23;21009;-80
2022/10/09 04:00:33;;;;;;;3.30;3.00;;;;;;;2.14;100.00;97169.25;6108377;23;20404;-80
2022/10/09 04:03:00;;;;;;;8.07;3.50;;;;;;;2.16;100.00;97161.19;6158857;23;20460;-80
2022/10/09 04:05:27;;;;;;;5.00;3.33;;;;;;;2.03;100.00;97159.78;6158461;23;20470;-80
2022/10/09 04:07:54;;;;;;;3.27;2.93;;;;;;;2.29;100.00;97151.09;6132067;23;20404;-80
2022/10/09 04:10:20;;;;;;;3.20;2.90;;;;;;;2.25;100.00;97151.81;6158076;23;20390;-80
2022/10/09 04:12:47;;;;;;;3.10;2.90;;;;;;;1.94;100.00;97076.03;6107931;23;20408;-80
2022/10/09 04:15:14;;;;;;;5.20;3.30;;;;;;;1.66;100.00;97092.00;6132505;23;20431;-80
2022/10/09 04:17:41;;;;;;;6.73;5.17;;;;;;;2.00;100.00;97116.75;6157977;23;20391;-80
2022/10/09 04:20:07;;;;;;;4.77;3.10;;;;;;;2.38;100.00;97178.25;6131642;23;20502;-81
2022/10/09 04:22:34;;;;;;;6.87;3.30;;;;;;;2.51;100.00;97153.53;6131383;23;20514;-80
2022/10/09 04:25:01;;;;;;;5.43;3.27;;;;;;;1.82;100.00;97072.03;6107355;23;20406;-80
2022/10/09 04:27:27;;;;;;;3.47;3.27;;;;;;;2.05;100.00;97089.91;6107653;23;20439;-81
2022/10/09 04:29:54;;;;;;;3.70;3.07;;;;;;;2.51;100.00;97157.97;6157954;23;20400;-80
2022/10/09 04:32:21;;;;;;;3.30;3.00;;;;;;;2.46;100.00;97134.47;6131290;23;20406;-81
2022/10/09 04:34:47;;;;;;;2.80;2.60;;;;;;;2.88;100.00;97205.66;6107029;23;20407;-80
2022/10/09 04:37:14;;;;;;;3.10;2.83;;;;;;;2.52;100.00;97120.38;6132101;23;20495;-80
2022/10/09 04:39:41;;;;;;;3.30;3.00;;;;;;;2.63;100.00;97137.66;6131435;23;20446;-81
2022/10/09 04:42:07;;;;;;;5.73;2.90;;;;;;;3.02;100.00;97195.53;6131687;23;20478;-80
2022/10/09 04:44:34;;;;;;;4.53;3.20;;;;;;;2.56;100.00;97131.91;6158005;23;20388;-81
2022/10/09 04:47:01;;;;;;;7.70;4.67;;;;;;;2.32;100.00;97126.31;6132185;23;20495;-81
2022/10/09 04:49:27;;;;;;;5.63;3.70;;;;;;;2.70;100.00;97168.78;6158570;23;20404;-81
2022/10/09 04:51:54;;;;;;;9.10;4.70;;;;;;;2.72;100.00;97170.09;6132773;23;20475;-81
2022/10/09 04:54:20;;;;;;;12.77;5.40;;;;;;;2.70;100.00;97177.41;6132575;23;20428;-81
2022/10/09 04:56:47;;;;;;;18.07;4.97;;;;;;;2.21;100.00;97109.81;6108076;23;20519;-80
2022/10/09 04:59:14;;;;;;;9.30;4.33;;;;;;;2.47;100.00;97136.03;6132062;23;20420;-80
2022/10/09 05:01:40;;;;;;;12.47;5.53;;;;;;;2.77;100.00;97179.75;6132351;23;20432;-81
2022/10/09 05:04:07;;;;;;;14.17;5.00;;;;;;;2.78;100.00;97197.78;6132183;23;20458;-80
2022/10/09 05:06:34;;;;;;;6.40;3.20;;;;;;;2.86;100.00;97184.25;6132279;23;20395;-80
2022/10/09 05:09:01;;;;;;;21.83;5.60;;;;;;;2.77;100.00;97167.50;6132726;23;20411;-80
2022/10/09 05:11:28;;;;;;;16.53;5.90;;;;;;;2.82;100.00;97177.19;6158135;23;20408;-80
2022/10/09 05:13:56;;;;;;;14.40;4.90;;;;;;;2.86;100.00;97193.91;6132340;23;20483;-80
2022/10/09 05:16:28;;;;;;;21.73;4.13;;;;;;;2.63;100.00;97150.72;6158314;23;20430;-80
2022/10/09 05:18:57;;;;;;;13.90;3.90;;;;;;;2.88;100.00;97195.22;6131613;23;20435;-80
2022/10/09 05:21:24;;;;;;;14.20;3.63;;;;;;;2.93;100.00;97197.84;6132203;23;20392;-79
2022/10/09 05:23:53;;;;;;;13.97;4.20;;;;;;;2.64;100.00;97201.88;6132604;23;20510;-80
2022/10/09 05:26:21;;;;;;;26.90;5.43;;;;;;;2.28;100.00;97180.03;6131712;23;20402;-80
2022/10/09 05:28:48;;;;;;;25.67;4.20;;;;;;;2.34;100.00;97198.06;6107315;23;20423;-80
2022/10/09 05:31:21;;;;;;;10.93;4.10;;;;;;;2.39;100.00;97197.31;6106885;23;20498;-81
2022/10/09 05:33:48;;;;;;;14.20;5.33;;;;;;;2.01;100.00;97151.44;6132628;23;20383;-80
2022/10/09 05:36:15;;;;;;;9.00;3.63;;;;;;;2.41;100.00;97199.69;6158041;23;20717;-80
2022/10/09 05:38:43;;;;;;;7.30;3.47;;;;;;;2.17;100.00;97175.78;6158805;23;20404;-80
2022/10/09 05:41:12;;;;;;;10.17;4.33;;;;;;;2.21;100.00;97200.34;6132467;23;20897;-80
2022/10/09 05:43:41;;;;;;;17.43;4.90;;;;;;;2.09;100.00;97203.13;6132786;23;20454;-80
2022/10/09 05:46:17;;;;;;;9.53;3.23;;;;;;;2.17;100.00;97167.97;6132788;23;20752;-80
2022/10/09 05:48:55;;;;;;;18.03;4.00;;;;;;;2.21;100.00;97198.50;6107757;23;20423;-80
2022/10/09 05:51:25;;;;;;;17.20;5.07;;;;;;;1.74;100.00;97162.72;6132277;23;20388;-80
2022/10/09 05:53:53;;;;;;;18.17;4.10;;;;;;;1.93;100.00;97198.81;6108773;23;20438;-80
2022/10/09 05:56:26;;;;;;;13.60;4.53;;;;;;;2.11;100.00;97192.44;6132211;23;20889;-80
2022/10/09 05:59:03;;;;;;;22.30;4.90;;;;;;;2.25;100.00;97204.78;6107861;23;20788;-80
2022/10/09 06:01:32;;;;;;;3.00;2.53;;;;;;;2.31;100.00;97180.31;6132477;23;20423;-81
2022/10/09 06:04:00;;;;;;;6.70;4.33;;;;;;;1.84;100.00;97109.84;6108168;23;20435;-79
2022/10/09 06:06:30;;;;;;;12.13;6.30;;;;;;;2.14;100.00;97216.22;6132716;23;20505;-80
2022/10/09 06:08:57;;;;;;;30.13;5.30;;;;;;;1.74;100.00;97191.38;6131871;23;20423;-80
2022/10/09 06:11:28;;;;;;;14.53;4.00;;;;;;;1.50;100.00;97137.22;6132027;23;20407;-80
2022/10/09 06:13:55;;;;;;;13.37;3.70;;;;;;;1.99;100.00;97214.25;6108830;23;20392;-80
2022/10/09 06:16:24;;;;;;;28.77;4.33;;;;;;;1.42;100.00;97147.03;6159419;23;20384;-80
2022/10/09 06:18:52;;;;;;;19.03;4.60;;;;;;;1.91;100.00;97206.13;6134224;23;20420;-80
2022/10/09 06:21:20;;;;;;;19.77;5.30;;;;;;;1.91;100.00;97204.28;6135073;23;20846;-80
2022/10/09 06:23:50;;;;;;;24.60;6.17;;;;;;;1.98;100.00;97202.25;6134413;23;20430;-80
2022/10/09 06:26:18;;;;;;;14.83;5.07;;;;;;;1.64;100.00;97208.75;6134292;23;20793;-81
2022/10/09 06:28:45;;;;;;;11.60;4.33;;;;;;;0.99;100.00;97137.50;6110649;23;20442;-80
2022/10/09 06:31:24;;;;;;;7.63;5.70;;;;;;;1.47;100.00;97207.03;6109420;23;20876;-80
2022/10/09 06:33:52;;;;;;;7.87;4.20;;;;;;;1.39;100.00;97204.06;6134041;23;20406;-80
2022/10/09 06:36:25;;;;;;;9.13;4.90;;;;;;;1.61;100.00;97209.25;6134795;23;20455;-80
2022/10/09 06:38:52;;;;;;;5.00;4.17;;;;;;;1.66;100.00;97196.25;6133979;23;20530;-80
2022/10/09 06:41:24;;;;;;;10.33;4.83;;;;;;;1.93;100.00;97204.81;6134064;23;20413;-80
2022/10/09 06:43:52;;;;;;;6.47;4.33;;;;;;;2.21;100.00;97236.84;6109919;23;20960;-80
2022/10/09 06:46:21;;;;;;;5.30;4.80;;;;;;;2.33;100.00;97213.97;6160237;23;20471;-81
2022/10/09 06:48:47;;;;;;;9.93;5.50;;;;;;;2.00;100.00;97152.44;6109727;23;20433;-81
2022/10/09 06:51:17;;;;;;;6.67;4.23;;;;;;;2.70;100.00;97240.06;6133898;23;20435;-80
2022/10/09 06:53:46;;;;;;;5.23;4.63;;;;;;;2.79;100.00;97232.50;6110249;23;20423;-80
2022/10/09 06:56:14;;;;;;;4.33;3.93;;;;;;;2.89;100.00;97238.56;6134052;23;20475;-80
2022/10/09 06:58:41;;;;;;;4.37;3.97;;;;;;;2.99;100.00;97252.72;6159586;23;20412;-80
2022/10/09 07:01:09;;;;;;;6.37;5.47;;;;;;;2.79;100.00;97188.13;6133817;23;20510;-80
2022/10/09 07:03:37;;;;;;;6.23;4.93;;;;;;;2.78;100.00;97200.38;6109125;23;20419;-80
2022/10/09 07:06:07;;;;;;;14.97;7.60;;;;;;;3.24;100.00;97242.41;6109078;23;20499;-80
2022/10/09 07:08:35;;;;;;;13.27;5.90;;;;;;;2.91;100.00;97193.91;6159448;23;20443;-80
2022/10/09 07:11:08;;;;;;;5.20;4.67;;;;;;;3.38;100.00;97255.78;6133476;23;20475;-80
2022/10/09 07:13:35;;;;;;;10.73;5.30;;;;;;;3.39;100.00;97252.09;6133924;23;20436;-80
2022/10/09 07:16:02;;;;;;;5.23;4.00;;;;;;;3.12;100.00;97200.03;6134272;23;20411;-80
2022/10/09 07:18:34;;;;;;;3.93;3.43;;;;;;;3.53;100.00;97245.34;6159503;23;20400;-80
2022/10/09 07:21:03;;;;;;;7.13;4.00;;;;;;;3.67;100.00;97250.88;6108507;23;20439;-80
2022/10/09 07:23:31;;;;;;;9.67;6.70;;;;;;;3.46;100.00;97203.75;6109097;23;20523;-80
2022/10/09 07:25:59;;;;;;;12.83;6.90;;;;;;;3.55;100.00;97196.19;6109079;23;20446;-80
2022/10/09 07:28:27;;;;;;;5.80;4.60;;;;;;;3.58;100.00;97203.53;6133394;23;20437;-81
2022/10/09 07:30:54;;;;;;;16.43;4.20;;;;;;;3.25;100.00;97176.03;6133484;23;20412;-80
2022/10/09 07:33:21;;;;;;;15.50;7.80;;;;;;;3.42;100.00;97200.09;6132766;23;20424;-80
2022/10/09 07:35:58;;;;;;;14.30;5.17;;;;;;;3.70;100.00;97227.59;6159342;23;20487;-80
2022/10/09 07:38:25;;;;;;;7.97;4.27;;;;;;;3.75;100.00;97225.00;6109382;23;21031;-81
2022/10/09 07:40:53;;;;;;;6.40;4.93;;;;;;;4.08;100.00;97249.88;6133541;23;21116;-81
2022/10/09 07:43:20;;;;;;;10.60;4.83;;;;;;;4.24;100.00;97249.88;6133535;23;20473;-80
2022/10/09 07:45:47;;;;;;;6.50;4.50;;;;;;;3.47;100.00;97147.84;6133438;23;20404;-81
2022/10/09 07:48:14;;;;;;;7.53;5.23;;;;;;;4.07;100.00;97247.53;6133117;23;20423;-81
2022/10/09 07:50:40;;;;;;;20.90;6.20;;;;;;;3.68;100.00;97200.16;6133691;23;20407;-81
2022/10/09 07:53:07;;;;;;;8.17;5.53;;;;;;;3.89;100.00;97193.91;6158632;23;21256;-80
2022/10/09 07:55:35;;;;;;;6.50;5.90;;;;;;;3.57;100.00;97128.75;6108314;23;20778;-80
2022/10/09 07:58:02;;;;;;;6.23;5.63;;;;;;;4.29;100.00;97195.72;6132658;23;20523;-80
2022/10/09 08:00:28;;;;;;;11.00;5.30;;;;;;;3.65;100.00;97132.69;6132938;23;20395;-80
2022/10/09 08:02:55;;;;;;;6.03;5.00;;;;;;;3.94;100.00;97172.16;6132470;23;20414;-80
2022/10/09 08:05:22;;;;;;;5.63;5.13;;;;;;;4.24;100.00;97189.69;6133079;23;20400;-81
2022/10/09 08:07:48;;;;;;;5.50;4.73;;;;;;;4.51;100.00;97205.88;6133049;23;20408;-80
2022/10/09 08:10:15;;;;;;;6.10;5.20;;;;;;;4.44;100.00;97223.69;6132877;23;20399;-80
2022/10/09 08:12:42;;;;;;;5.40;4.90;;;;;;;4.26;100.00;97185.75;6108879;23;20422;-80
2022/10/09 08:15:09;;;;;;;9.90;5.63;;;;;;;4.68;100.00;97208.22;6132951;23;20406;-80
2022/10/09 08:17:35;;;;;;;8.30;5.10;;;;;;;4.85;100.00;97231.47;6132670;23;20395;-80
2022/10/09 08:20:02;;;;;;;7.93;5.80;;;;;;;4.51;100.00;97186.75;6132604;23;20443;-80
2022/10/09 08:22:29;;;;;;;6.93;6.30;;;;;;;4.17;100.00;97145.47;6108082;23;20815;-80
2022/10/09 08:24:56;;;;;;;6.60;6.10;;;;;;;4.30;100.00;97180.78;6132748;23;20463;-80
2022/10/09 08:27:22;;;;;;;6.17;5.57;;;;;;;4.05;100.00;97121.41;6159194;23;20393;-80
2022/10/09 08:29:49;;;;;;;6.30;5.80;;;;;;;4.51;100.00;97179.69;6132198;23;20426;-80
2022/10/09 08:32:16;;;;;;;9.00;5.70;;;;;;;4.81;100.00;97175.41;6132340;23;20970;-80
2022/10/09 08:34:42;;;;;;;7.00;6.40;;;;;;;5.30;100.00;97189.34;6132227;23;20427;-80
2022/10/09 08:37:09;;;;;;;6.73;6.10;;;;;;;5.46;100.00;97186.63;6108860;23;20439;-80
2022/10/09 08:39:36;;;;;;;4.80;4.40;;;;;;;5.89;100.00;97214.69;6109078;23;20462;-80
2022/10/09 08:42:04;;;;;;;5.73;5.33;;;;;;;6.07;100.00;97205.38;6158839;23;20450;-81
2022/10/09 08:44:46;;;;;;;7.03;6.37;;;;;;;6.04;100.00;97174.44;6107110;23;21013;-80
2022/10/09 08:47:18;;;;;;;17.80;10.03;;;;;;;6.53;100.00;97221.50;6107806;23;20396;-80
2022/10/09 08:50:10;;;;;;;13.10;11.73;;;;;;;6.69;100.00;97227.41;6132159;23;20444;-80
2022/10/09 08:52:46;;;;;;;8.50;5.87;;;;;;;6.56;100.00;97193.16;6134274;23;20396;-82
2022/10/09 08:55:18;;;;;;;6.60;6.00;;;;;;;6.77;100.00;97218.91;6110737;23;20876;-80
2022/10/09 08:57:50;;;;;;;7.83;7.13;;;;;;;6.89;100.00;97194.09;6109368;23;20432;-81
2022/10/09 09:00:21;;;;;;;6.20;5.60;;;;;;;6.70;100.00;97139.63;6134505;23;20373;-80
2022/10/09 09:03:00;;;;;;;7.33;5.80;;;;;;;7.32;100.00;97221.16;6109962;23;20846;-79
2022/10/09 09:05:44;;;;;;;6.77;6.07;;;;;;;7.47;100.00;97178.09;6134009;23;20443;-80
2022/10/09 09:08:36;;;;;;;11.77;5.60;;;;;;;7.86;100.00;97218.06;6133328;23;20501;-80
2022/10/09 09:11:54;;;;;;;5.97;4.23;;;;;;;7.98;100.00;97214.97;6132281;23;20440;-80
2022/10/09 09:14:39;;;;;;;6.07;4.40;;;;;;;8.08;100.00;97211.41;6026137;23;20398;-80
2022/10/09 09:17:36;;;;;;;4.23;3.13;;;;;;;8.34;100.00;97206.53;6022218;23;20391;-80
2022/10/09 09:20:17;;;;;;;4.63;4.33;;;;;;;8.51;100.00;97193.59;6129695;23;20427;-79
2022/10/09 09:22:47;;;;;;;5.30;3.43;;;;;;;8.53;100.00;97165.88;6110159;23;20737;-81
2022/10/09 09:25:29;;;;;;;4.33;3.67;;;;;;;9.09;100.00;97208.88;6134421;23;20762;-81
2022/10/09 09:28:15;;;;;;;4.47;3.20;;;;;;;9.22;100.00;97208.06;6108705;23;20408;-81
2022/10/09 09:30:46;;;;;;;4.43;2.83;;;;;;;9.36;100.00;97203.56;6109693;23;20400;-81
2022/10/09 09:33:23;;;;;;;3.47;2.97;;;;;;;8.95;100.00;97121.84;6161404;23;20419;-79
2022/10/09 09:35:58;;;;;;;4.83;3.03;;;;;;;9.74;100.00;97197.97;6133541;23;20395;-80
2022/10/09 09:38:25;;;;;;;7.43;3.10;;;;;;;9.86;100.00;97182.38;6109178;23;20427;-81
2022/10/09 09:40:52;;;;;;;3.07;2.77;;;;;;;9.62;100.00;97115.88;6110323;23;20404;-81
2022/10/09 09:43:24;;;;;;;3.20;2.70;;;;;;;10.41;100.00;97202.47;6134419;23;20403;-81
2022/10/09 09:45:53;;;;;;;5.13;2.60;;;;;;;9.74;100.00;97118.75;6108373;23;20804;-80
2022/10/09 09:48:37;;;;;;;2.87;1.93;;;;;;;10.35;100.00;97172.75;6158470;23;20408;-80
2022/10/09 09:51:15;;;;;;;2.73;2.43;;;;;;;10.46;100.00;97163.50;6108692;23;20392;-80
2022/10/09 09:54:05;;;;;;;6.20;2.70;;;;;;;10.47;100.00;97190.72;6112874;23;20407;-81
2022/10/09 09:56:57;;;;;;;2.57;2.10;;;;;;;10.65;100.00;97195.75;6136119;23;20403;-80
2022/10/09 09:59:43;;;;;;;4.83;2.10;;;;;;;10.65;100.00;97193.13;6140452;23;20414;-81
2022/10/09 10:02:25;;;;;;;2.20;2.00;;;;;;;10.64;100.00;97164.34;6136186;23;20887;-82
2022/10/09 10:04:57;;;;;;;3.40;2.10;;;;;;;10.74;100.00;97152.72;6110981;23;20424;-81
2022/10/09 10:07:32;;;;;;;3.97;2.00;;;;;;;10.77;100.00;97160.81;6135651;23;20662;-81
2022/10/09 10:10:08;;;;;;;2.40;1.90;;;;;;;10.93;100.00;97184.97;6135709;23;20847;-81
2022/10/09 10:12:41;;;;;;;3.87;2.17;;;;;;;10.90;100.00;97130.03;6111667;23;20407;-81
2022/10/09 10:15:21;;;;;;;3.40;2.20;;;;;;;11.37;100.00;97176.06;6111039;23;20815;-81
2022/10/09 10:17:54;;;;;;;2.33;1.63;;;;;;;11.35;100.00;97164.19;6110811;23;20817;-80
2022/10/09 10:20:21;;;;;;;3.00;1.80;;;;;;;10.82;100.00;97073.38;6111881;23;20506;-81
2022/10/09 10:22:54;;;;;;;3.03;1.97;;;;;;;11.60;100.00;97160.78;6136955;23;20446;-81
2022/10/09 10:25:25;;;;;;;4.23;2.10;;;;;;;11.40;100.00;97132.28;6135301;23;20446;-81
2022/10/09 10:27:59;;;;;;;2.57;2.00;;;;;;;11.44;100.00;97147.22;6135795;23;20858;-81
2022/10/09 10:30:46;;;;;;;2.87;2.10;;;;;;;11.63;100.00;97154.88;6135822;23;20438;-81
2022/10/09 10:33:21;;;;;;;3.93;2.17;;;;;;;11.58;100.00;97155.03;6023150;23;20502;-81
2022/10/09 10:35:51;;;;;;;3.03;1.90;;;;;;;11.43;100.00;97111.25;6022788;23;20401;-82
2022/10/09 10:38:37;;;;;;;3.43;2.20;;;;;;;11.79;100.00;97144.63;6071099;23;20418;-81
2022/10/09 10:41:18;;;;;;;6.27;2.30;;;;;;;11.93;100.00;97147.88;6046858;23;20375;-81
2022/10/09 10:43:47;;;;;;;6.00;2.33;;;;;;;11.80;100.00;97123.09;6046721;23;20933;-81
2022/10/09 10:46:22;;;;;;;4.30;2.10;;;;;;;11.87;100.00;97146.47;6048883;23;20482;-80
2022/10/09 10:48:50;;;;;;;3.23;2.33;;;;;;;12.08;100.00;97133.34;6045709;23;20413;-80
2022/10/09 10:51:26;;;;;;;11.30;2.60;;;;;;;12.00;100.00;97142.84;6070292;23;20503;-80
2022/10/09 10:54:02;;;;;;;3.93;1.97;;;;;;;12.29;100.00;97138.75;6023056;23;20412;-80
2022/10/09 10:56:39;;;;;;;2.77;1.70;;;;;;;11.99;100.00;97100.78;6027014;23;20842;-80
2022/10/09 10:59:24;;;;;;;2.17;1.97;;;;;;;12.23;100.00;97143.44;6072260;23;20489;-80
2022/10/09 11:02:28;;;;;;;2.50;1.50;;;;;;;12.12;100.00;97083.88;6024917;23;20394;-80
2022/10/09 11:05:21;;;;;;;2.40;1.80;;;;;;;12.77;100.00;97149.00;6025469;23;20441;-80
2022/10/09 11:08:06;;;;;;;3.53;1.87;;;;;;;12.52;100.00;97144.59;6023169;23;20866;-79
2022/10/09 11:10:36;;;;;;;2.10;1.60;;;;;;;12.76;100.00;97141.38;6110807;23;20795;-80
2022/10/09 11:13:25;;;;;;;2.07;1.23;;;;;;;12.69;100.00;97140.00;6136064;23;20419;-78
2022/10/09 11:16:31;;;;;;;2.23;1.77;;;;;;;12.84;100.00;97136.03;6161624;23;20371;-80
2022/10/09 11:19:19;;;;;;;2.73;1.30;;;;;;;12.82;99.83;97124.16;6136186;23;20814;-80
2022/10/09 11:22:15;;;;;;;2.17;1.60;;;;;;;12.81;98.34;97109.34;6137377;23;20400;-81
2022/10/09 11:25:01;;;;;;;2.93;1.33;;;;;;;12.89;96.40;97104.00;6133723;23;20793;-79
2022/10/09 11:27:31;;;;;;;1.80;1.70;;;;;;;12.73;93.03;97125.00;6135238;23;20404;-79
2022/10/09 11:30:02;;;;;;;2.57;1.87;;;;;;;12.92;91.90;97119.25;6111851;23;20490;-80
2022/10/09 11:32:35;;;;;;;3.20;2.43;;;;;;;13.11;87.25;97107.47;6162591;23;20372;-80
2022/10/09 11:35:33;;;;;;;2.23;1.57;;;;;;;13.45;86.88;97114.41;6159705;23;20365;-80
2022/10/09 11:38:12;;;;;;;1.50;1.40;;;;;;;13.39;85.87;97097.91;6132227;23;20464;-79
2022/10/09 11:40:42;;;;;;;1.97;1.77;;;;;;;13.45;83.88;97093.94;6111087;23;20402;-80
2022/10/09 11:43:24;;;;;;;3.23;1.97;;;;;;;13.63;81.38;97104.44;6135942;23;20408;-80
2022/10/09 11:46:20;;;;;;;5.50;2.40;;;;;;;13.98;79.54;97100.31;6135622;23;20438;-80
2022/10/09 11:49:23;;;;;;;2.60;1.37;;;;;;;14.07;76.95;97092.25;6086203;23;20428;-81
2022/10/09 11:52:22;;;;;;;2.10;1.30;;;;;;;13.85;76.81;97082.78;6135667;23;20411;-81